Time;durP1;ratioP1;P1;durP2;ratioP2;P2;SDS_P1;SDS_P2;PMS_P1;PMS_P2;Temp;Humidity;BMP_temperature;BMP_pressure;BME280_temperature;BME280_humidity;BME280_pressure;Samples;Min_cycle;Max_cycle;Signal;HPM_P1;HPM_P2
2022/06/16 00:01:13;;;;;;;7.90;3.10;;;;;;;12.62;54.87;101111.72;1707530;83;21407;-81
2022/06/16 00:03:39;;;;;;;6.10;2.95;;;;;;;12.59;54.94;101112.18;1684227;83;20886;-81
2022/06/16 00:06:05;;;;;;;4.55;2.98;;;;;;;12.57;54.96;101107.45;1690072;83;21484;-81
2022/06/16 00:08:31;;;;;;;12.20;3.55;;;;;;;12.55;55.05;101105.77;1735508;82;21068;-81
2022/06/16 00:11:16;;;;;;;4.17;2.75;;;;;;;12.53;55.16;101110.98;1704973;83;21552;-81
2022/06/16 00:13:44;;;;;;;4.85;2.77;;;;;;;12.49;55.20;101109.75;1715152;83;21418;-81
2022/06/16 00:16:11;;;;;;;3.15;2.67;;;;;;;12.46;55.25;101109.40;1714982;83;21622;-80
2022/06/16 00:18:39;;;;;;;5.90;3.25;;;;;;;12.44;55.30;101109.86;1709332;83;21608;-80
2022/06/16 00:21:06;;;;;;;4.95;2.77;;;;;;;12.40;55.38;101106.90;1691162;83;21531;-80
2022/06/16 00:23:33;;;;;;;6.25;2.70;;;;;;;12.38;55.47;101103.47;1713301;82;21085;-80
2022/06/16 00:25:59;;;;;;;5.40;3.33;;;;;;;12.36;55.60;101105.23;1738467;82;21093;-80
2022/06/16 00:28:26;;;;;;;5.50;2.90;;;;;;;12.35;55.65;101099.62;1714665;83;22103;-81
2022/06/16 00:31:05;;;;;;;4.70;2.80;;;;;;;12.33;55.77;101094.91;1714732;83;21148;-81
2022/06/16 00:33:32;;;;;;;8.05;2.50;;;;;;;12.32;55.78;101092.34;1715021;83;21228;-81
2022/06/16 00:35:59;;;;;;;9.88;3.37;;;;;;;12.27;55.86;101089.81;1711740;83;21552;-81
2022/06/16 00:38:25;;;;;;;5.10;2.72;;;;;;;12.31;55.91;101090.18;1679648;85;21591;-81
2022/06/16 00:40:52;;;;;;;4.60;2.80;;;;;;;12.31;56.00;101087.59;1698008;83;21065;-81
2022/06/16 00:43:19;;;;;;;3.80;2.40;;;;;;;12.28;56.10;101088.93;1715463;83;21056;-81
2022/06/16 00:45:56;;;;;;;4.55;2.67;;;;;;;12.25;56.14;101087.23;1711703;82;21500;-81
2022/06/16 00:48:43;;;;;;;6.58;2.35;;;;;;;12.23;56.20;101079.92;1708948;83;20850;-80
2022/06/16 00:51:35;;;;;;;5.03;3.05;;;;;;;12.19;56.19;101082.15;1708683;83;20949;-80
2022/06/16 00:54:30;;;;;;;6.10;2.62;;;;;;;12.15;56.27;101078.33;1692221;83;21053;-80
2022/06/16 00:57:05;;;;;;;3.37;2.55;;;;;;;12.10;56.37;101072.35;1714830;83;20969;-80
2022/06/16 00:59:31;;;;;;;3.92;2.70;;;;;;;12.08;56.39;101068.93;1715315;83;21475;-80
2022/06/16 01:01:59;;;;;;;4.75;2.58;;;;;;;12.05;56.46;101070.27;1711893;82;21056;-80
2022/06/16 01:07:14;;;;;;;5.05;2.70;;;;;;;11.99;56.58;101066.47;1719318;81;21048;-81
2022/06/16 01:09:43;;;;;;;5.03;2.90;;;;;;;11.96;56.71;101067.84;1748757;81;21106;-81
2022/06/16 01:15:50;;;;;;;5.85;3.02;;;;;;;11.92;56.83;101064.00;1725198;82;21057;-81
2022/06/16 01:18:45;;;;;;;2.87;2.58;;;;;;;11.87;56.87;101064.50;1722401;82;21076;-81
2022/06/16 01:21:19;;;;;;;4.95;2.55;;;;;;;11.84;56.98;101065.84;1739984;82;21077;-82
2022/06/16 01:24:23;;;;;;;5.72;2.80;;;;;;;11.80;57.02;101062.88;1712293;83;21094;-82
2022/06/16 01:27:01;;;;;;;5.67;3.15;;;;;;;11.79;57.11;101070.66;1658177;85;21145;-81
2022/06/16 01:29:35;;;;;;;6.05;2.77;;;;;;;11.75;57.16;101067.22;1651633;84;444132;-82
2022/06/16 01:32:11;;;;;;;8.23;3.02;;;;;;;11.72;57.26;101069.86;1659010;84;21518;-82
2022/06/16 01:35:09;;;;;;;5.17;2.72;;;;;;;11.71;57.28;101068.58;1657453;84;20989;-81
2022/06/16 01:37:50;;;;;;;7.25;2.60;;;;;;;11.67;57.47;101065.17;1660841;86;21062;-81
2022/06/16 01:40:50;;;;;;;4.30;2.80;;;;;;;11.65;57.49;101068.66;1663537;84;21123;-81
2022/06/16 01:43:39;;;;;;;3.37;3.05;;;;;;;11.64;57.59;101071.69;1659954;85;21072;-81
2022/06/16 01:46:23;;;;;;;5.60;2.90;;;;;;;11.63;57.70;101067.83;1660986;84;21127;-81
2022/06/16 01:48:57;;;;;;;3.22;2.83;;;;;;;11.62;57.74;101066.97;1651351;85;21115;-81
2022/06/16 01:51:35;;;;;;;4.47;3.12;;;;;;;11.61;57.73;101062.66;1659092;86;21472;-81
2022/06/16 01:54:15;;;;;;;5.53;2.58;;;;;;;11.59;57.78;101063.13;1652996;84;21132;-82
2022/06/16 01:57:08;;;;;;;4.12;2.58;;;;;;;11.54;57.83;101060.59;1644605;84;21124;-81
2022/06/16 01:59:39;;;;;;;7.05;2.33;;;;;;;11.50;57.89;101064.53;1736935;81;21028;-81
2022/06/16 02:02:12;;;;;;;2.62;2.10;;;;;;;11.46;57.94;101063.71;1747424;82;21061;-81
2022/06/16 02:04:58;;;;;;;3.45;2.65;;;;;;;11.45;57.99;101066.32;1748996;81;21073;-81
2022/06/16 02:07:37;;;;;;;3.30;2.40;;;;;;;11.42;58.08;101071.57;1734190;81;21069;-81
2022/06/16 02:10:09;;;;;;;5.62;3.15;;;;;;;11.38;58.17;101072.48;1718395;81;20971;-81
2022/06/16 02:12:55;;;;;;;5.47;2.92;;;;;;;11.35;58.21;101069.48;1747172;82;21068;-81
2022/06/16 02:15:45;;;;;;;4.95;2.50;;;;;;;11.34;58.30;101079.42;1749850;81;21525;-81
2022/06/16 02:18:23;;;;;;;4.12;3.12;;;;;;;11.32;58.42;101064.34;1739497;81;21117;-80
2022/06/16 02:21:17;;;;;;;7.42;2.67;;;;;;;11.31;58.53;101063.07;1749372;81;21352;-80
2022/06/16 02:23:45;;;;;;;4.75;3.58;;;;;;;11.27;58.75;101065.69;1749383;81;21136;-80
2022/06/16 02:26:12;;;;;;;4.17;3.27;;;;;;;11.26;58.66;101061.83;1749498;80;21061;-80
2022/06/16 02:28:45;;;;;;;5.45;3.50;;;;;;;11.25;58.73;101057.52;1751290;81;21403;-80
2022/06/16 02:31:54;;;;;;;;;;;;;;;11.28;58.81;101057.49;1753573;81;20966;-80
2022/06/16 02:34:47;;;;;;;4.97;2.50;;;;;;;11.31;59.70;101053.57;1751049;81;22285;-80
2022/06/16 02:37:31;;;;;;;3.83;3.15;;;;;;;11.33;58.91;101049.23;1751256;81;20915;-80
2022/06/16 02:40:12;;;;;;;4.92;2.58;;;;;;;11.36;58.98;101045.75;1750895;81;20915;-80
2022/06/16 02:43:06;;;;;;;3.87;2.70;;;;;;;11.36;58.99;101041.86;1742268;81;21051;-80
2022/06/16 02:45:57;;;;;;;3.52;2.90;;;;;;;11.36;59.07;101045.31;1751165;81;21415;-79
2022/06/16 02:48:32;;;;;;;5.78;3.20;;;;;;;11.41;59.16;101041.38;1751953;80;20966;-79
2022/06/16 02:51:18;;;;;;;7.03;2.70;;;;;;;11.46;59.28;101043.44;1781590;80;20883;-79
2022/06/16 02:54:20;;;;;;;5.03;2.58;;;;;;;11.44;59.19;101036.98;1764703;80;20962;-79
2022/06/16 02:57:14;;;;;;;4.20;2.58;;;;;;;11.41;59.41;101034.46;1750837;81;20935;-79
2022/06/16 02:59:48;;;;;;;6.12;4.00;;;;;;;11.42;59.56;101033.59;1750751;81;20895;-79
2022/06/16 03:02:18;;;;;;;4.30;3.15;;;;;;;11.45;59.67;101032.22;1751059;81;20930;-79
2022/06/16 03:04:54;;;;;;;4.00;3.02;;;;;;;11.50;59.66;101034.75;1750978;81;20910;-79
2022/06/16 03:07:24;;;;;;;5.16;3.36;;;;;;;11.55;59.70;101030.37;1718959;81;5001336;-80
2022/06/16 03:09:51;;;;;;;4.83;3.27;;;;;;;11.60;59.74;101027.28;1751305;81;20883;-80
2022/06/16 03:12:18;;;;;;;3.83;3.17;;;;;;;11.64;59.83;101031.98;1742581;81;26573;-80
2022/06/16 03:14:45;;;;;;;5.30;2.80;;;;;;;11.67;59.85;101021.14;1751425;81;20970;-80
2022/06/16 03:17:15;;;;;;;3.10;2.80;;;;;;;11.72;59.89;101029.70;1749949;81;21118;-80
2022/06/16 03:19:41;;;;;;;3.17;2.90;;;;;;;11.74;59.98;101025.80;1741235;81;21063;-80
2022/06/16 03:22:08;;;;;;;4.03;3.35;;;;;;;11.75;60.02;101023.63;1732433;81;21081;-80
2022/06/16 03:24:34;;;;;;;3.87;3.08;;;;;;;11.81;60.12;101020.54;1733817;81;21073;-80
2022/06/16 03:27:01;;;;;;;4.08;2.83;;;;;;;11.87;60.18;101015.27;1741019;81;21081;-80
2022/06/16 03:29:28;;;;;;;3.90;3.17;;;;;;;11.95;60.23;101019.48;1722363;81;27445;-80
2022/06/16 03:31:55;;;;;;;3.98;2.85;;;;;;;12.02;60.33;101010.26;1749207;81;20997;-80
2022/06/16 03:34:23;;;;;;;5.05;3.35;;;;;;;12.09;60.35;101006.69;1733383;81;29091;-80
2022/06/16 03:36:49;;;;;;;7.25;3.85;;;;;;;12.20;60.48;101006.52;1720467;81;21060;-80
2022/06/16 03:39:16;;;;;;;6.62;3.37;;;;;;;12.31;60.52;101002.02;1743590;81;21069;-80
2022/06/16 03:41:43;;;;;;;;;;;;;;;12.44;60.62;101002.66;1752316;81;21401;-80
2022/06/16 03:44:10;;;;;;;3.58;3.17;;;;;;;12.56;61.28;101004.57;1729274;81;20164;-80
2022/06/16 03:46:36;;;;;;;5.33;3.92;;;;;;;12.69;60.71;101005.20;1739350;81;22301;-80
2022/06/16 03:49:04;;;;;;;4.92;3.95;;;;;;;12.81;60.83;101002.38;1721679;81;21078;-80
2022/06/16 03:51:32;;;;;;;4.50;4.05;;;;;;;12.97;60.85;100999.50;1723662;81;21037;-80
2022/06/16 03:53:58;;;;;;;;;;;;;;;13.13;60.87;100998.28;1722411;81;21090;-80
2022/06/16 03:56:24;;;;;;;8.53;4.25;;;;;;;13.28;61.48;100991.95;1743924;81;20909;-81
2022/06/16 03:58:54;;;;;;;7.03;4.53;;;;;;;13.43;60.94;100992.48;1732251;81;21525;-81
2022/06/16 04:01:22;;;;;;;9.30;4.92;;;;;;;13.60;61.02;100992.08;1719336;83;21121;-81
2022/06/16 04:04:00;;;;;;;;;;;;;;;13.76;61.00;100989.55;1722299;81;21077;-81
2022/06/16 04:06:31;;;;;;;7.40;4.92;;;;;;;13.94;61.53;100992.16;1748522;81;20246;-81
2022/06/16 04:08:59;;;;;;;7.33;5.20;;;;;;;14.12;61.05;100986.94;1743373;81;20927;-81
2022/06/16 04:11:28;;;;;;;6.58;4.75;;;;;;;14.39;61.15;100985.39;1740362;81;20967;-80
2022/06/16 04:14:08;;;;;;;11.45;5.40;;;;;;;14.62;61.10;100983.50;1740620;82;20964;-80
2022/06/16 04:16:39;;;;;;;6.87;5.30;;;;;;;14.79;61.02;100976.94;1739286;82;21372;-80
2022/06/16 04:19:07;;;;;;;11.60;4.67;;;;;;;14.93;61.04;100979.61;1740693;81;20946;-80
2022/06/16 04:21:39;;;;;;;6.60;4.28;;;;;;;15.01;61.07;100975.05;1739631;82;20967;-80
2022/06/16 04:24:06;;;;;;;7.70;4.50;;;;;;;15.09;61.07;100975.65;1719219;82;20932;-80
2022/06/16 04:26:39;;;;;;;7.37;5.17;;;;;;;15.19;61.08;100976.64;1731626;82;20963;-80
2022/06/16 04:29:09;;;;;;;7.20;4.58;;;;;;;15.30;61.12;100975.47;1729920;82;21444;-79
2022/06/16 04:31:36;;;;;;;7.80;4.12;;;;;;;15.39;61.09;100968.69;1726311;82;20891;-79
2022/06/16 04:34:03;;;;;;;4.90;4.37;;;;;;;15.47;61.09;100973.22;1729536;82;20883;-80
2022/06/16 04:36:31;;;;;;;4.92;4.30;;;;;;;15.54;61.11;100975.59;1740231;81;20971;-80
2022/06/16 04:38:58;;;;;;;;;;;;;;;15.62;61.11;100978.42;1743037;82;20971;-79
2022/06/16 04:41:25;;;;;;;9.98;3.90;;;;;;;15.67;61.38;100982.59;1740728;82;20126;-79
2022/06/16 04:43:51;;;;;;;;;;;;;;;15.76;61.14;100974.93;1743259;81;20919;-79
2022/06/16 04:46:21;;;;;;;4.90;3.42;;;;;;;15.84;61.37;100975.09;1735361;81;20168;-79
2022/06/16 04:48:48;;;;;;;6.03;3.55;;;;;;;15.93;61.16;100971.79;1736665;81;20998;-79
2022/06/16 04:51:16;;;;;;;4.92;3.42;;;;;;;16.05;61.22;100963.56;1733164;82;21074;-79
2022/06/16 04:53:44;;;;;;;5.62;4.00;;;;;;;16.16;61.15;100962.73;1740062;82;20963;-79
2022/06/16 04:56:10;;;;;;;7.83;3.83;;;;;;;16.26;61.20;100964.12;1740853;81;20955;-79
2022/06/16 04:58:36;;;;;;;5.45;3.47;;;;;;;16.36;61.19;100956.84;1730166;82;21062;-79
2022/06/16 05:01:05;;;;;;;5.87;3.77;;;;;;;16.46;61.19;100960.84;1722619;82;21565;-78
2022/06/16 05:03:32;;;;;;;5.28;3.85;;;;;;;16.54;61.25;100950.98;1740326;82;21440;-79
2022/06/16 05:05:58;;;;;;;4.22;3.83;;;;;;;16.63;61.22;100938.91;1739615;82;21324;-79
2022/06/16 05:08:25;;;;;;;4.65;3.72;;;;;;;16.75;61.26;100942.84;1737859;81;21066;-79
2022/06/16 05:10:52;;;;;;;6.75;4.37;;;;;;;16.84;61.22;100945.13;1705360;83;21049;-79
2022/06/16 05:13:19;;;;;;;4.70;3.27;;;;;;;16.93;61.27;100947.85;1709538;83;21462;-79
2022/06/16 05:15:45;;;;;;;10.75;4.35;;;;;;;17.03;61.28;100957.05;1689930;84;21076;-78
2022/06/16 05:18:13;;;;;;;5.22;3.75;;;;;;;17.14;61.28;100961.43;1706607;83;21008;-78
2022/06/16 05:20:42;;;;;;;;;;;;;;;17.25;61.27;100963.15;1684135;83;21099;-78
2022/06/16 05:23:18;;;;;;;7.55;3.47;;;;;;;17.31;61.39;100956.84;1684686;84;20202;-78
2022/06/16 05:25:45;;;;;;;5.00;3.60;;;;;;;17.37;61.22;100950.92;1701192;82;21108;-78
2022/06/16 05:28:11;;;;;;;5.40;3.70;;;;;;;17.43;61.16;100958.98;1665322;83;21567;-78
2022/06/16 05:30:38;;;;;;;5.35;3.37;;;;;;;17.47;61.15;100955.34;1696440;82;21057;-78
2022/06/16 05:33:07;;;;;;;7.17;4.05;;;;;;;17.53;61.16;100954.65;1666392;85;21420;-78
2022/06/16 05:35:34;;;;;;;7.03;3.62;;;;;;;17.62;61.14;100955.20;1703774;83;21505;-78
2022/06/16 05:38:00;;;;;;;;;;;;;;;17.69;61.14;100959.27;1681304;83;21510;-78
2022/06/16 05:40:27;;;;;;;6.03;4.10;;;;;;;17.79;61.22;100956.69;1684078;83;20353;-78
2022/06/16 05:42:53;;;;;;;3.17;2.87;;;;;;;17.90;61.14;100956.25;1703778;82;21095;-79
2022/06/16 05:45:20;;;;;;;4.70;3.60;;;;;;;18.02;61.13;100947.45;1693013;83;27409;-79
2022/06/16 05:47:47;;;;;;;6.08;3.10;;;;;;;18.18;61.16;100945.05;1665982;84;21083;-79
2022/06/16 05:50:16;;;;;;;4.50;3.00;;;;;;;18.36;61.10;100948.62;1692574;83;21802;-79
2022/06/16 05:52:43;;;;;;;4.67;2.85;;;;;;;18.54;61.10;100946.52;1695897;83;20944;-79
2022/06/16 05:55:13;;;;;;;5.92;3.25;;;;;;;18.77;61.08;100952.06;1686442;83;20869;-79
2022/06/16 05:57:39;;;;;;;5.55;2.92;;;;;;;18.98;61.05;100946.31;1680178;84;20925;-79
2022/06/16 06:00:08;;;;;;;3.80;2.55;;;;;;;19.22;60.99;100945.66;1683293;84;20885;-79
2022/06/16 06:02:36;;;;;;;4.35;2.52;;;;;;;19.47;60.88;100951.42;1680777;84;20897;-79
2022/06/16 06:05:04;;;;;;;7.30;2.70;;;;;;;19.76;60.80;100951.34;1687572;84;20915;-79
2022/06/16 06:16:25;;;;;;;3.35;2.10;;;;;;;20.05;60.73;100945.98;1690778;83;21488;-79
2022/06/16 06:18:21;;;;;;;5.50;2.30;;;;;;;21.60;60.33;100952.59;1637324;85;20982;-79
2022/06/16 06:20:48;;;;;;;5.60;2.30;;;;;;;22.14;60.07;100953.84;1668453;84;21066;-79
2022/06/16 06:23:14;;;;;;;3.10;2.70;;;;;;;22.74;60.05;100953.72;1667981;84;21470;-80
2022/06/16 06:25:45;;;;;;;5.85;2.85;;;;;;;23.28;59.93;100952.08;1648583;84;21048;-79
2022/06/16 06:28:18;;;;;;;2.72;2.33;;;;;;;23.60;59.18;100951.34;1657464;85;21030;-79
2022/06/16 06:30:45;;;;;;;3.37;2.47;;;;;;;23.76;59.35;100962.61;1668849;84;20958;-79
2022/06/16 06:33:13;;;;;;;8.48;3.05;;;;;;;24.08;59.18;100963.09;1677692;84;21097;-79
2022/06/16 06:35:39;;;;;;;3.20;2.33;;;;;;;24.34;58.78;100962.70;1640607;87;21082;-79
2022/06/16 06:38:05;;;;;;;4.00;2.62;;;;;;;24.41;58.58;100961.81;1669795;84;21129;-79
2022/06/16 06:40:37;;;;;;;5.53;2.45;;;;;;;24.45;58.44;100959.77;1684205;84;21235;-82
2022/06/16 06:43:04;;;;;;;4.35;3.00;;;;;;;24.59;58.15;100955.70;1675619;82;21076;-79
2022/06/16 06:45:31;;;;;;;5.10;2.87;;;;;;;24.62;57.90;100960.30;1707325;82;21113;-79
2022/06/16 06:47:58;;;;;;;4.20;2.70;;;;;;;24.69;57.62;100964.70;1708295;82;21136;-79
2022/06/16 06:50:29;;;;;;;3.42;2.87;;;;;;;24.72;57.52;100965.33;1704627;82;21057;-79
2022/06/16 06:52:55;;;;;;;3.47;2.70;;;;;;;25.14;57.33;100964.59;1700444;82;21037;-79
2022/06/16 06:55:23;;;;;;;4.55;2.60;;;;;;;25.85;56.88;100967.79;1701897;82;20990;-79
2022/06/16 06:57:52;;;;;;;4.22;3.10;;;;;;;26.55;56.64;100966.41;1697061;82;20982;-79
2022/06/16 07:00:22;;;;;;;5.33;2.98;;;;;;;27.35;56.37;100955.17;1728940;81;21004;-78
2022/06/16 07:02:48;;;;;;;5.75;2.87;;;;;;;28.19;55.63;100953.50;1726988;81;20990;-78
2022/06/16 07:05:15;;;;;;;5.22;2.80;;;;;;;28.71;55.40;100958.84;1734818;81;21045;-78
2022/06/16 07:07:41;;;;;;;6.58;3.02;;;;;;;29.35;55.13;100955.86;1728156;81;21114;-78
2022/06/16 07:10:11;;;;;;;6.10;3.15;;;;;;;29.90;55.05;100961.03;1741471;80;21060;-78
2022/06/16 07:12:37;;;;;;;8.90;3.95;;;;;;;30.49;54.66;100953.30;1740407;80;21009;-78
2022/06/16 07:15:06;;;;;;;7.08;3.40;;;;;;;30.80;54.15;100954.74;1739893;80;21055;-78
2022/06/16 07:17:32;;;;;;;4.20;3.25;;;;;;;30.99;53.45;100959.66;1740074;80;20962;-78
2022/06/16 07:20:01;;;;;;;6.42;3.27;;;;;;;31.09;52.83;100957.28;1748520;80;20871;-78
2022/06/16 07:22:27;;;;;;;5.22;2.83;;;;;;;31.08;52.14;100957.44;1746256;80;20965;-78
2022/06/16 07:24:54;;;;;;;9.30;3.50;;;;;;;30.95;51.62;100953.27;1741148;80;20903;-78
2022/06/16 07:27:21;;;;;;;6.22;2.70;;;;;;;30.99;51.05;100946.30;1742445;80;28418;-78
2022/06/16 07:29:49;;;;;;;8.40;2.62;;;;;;;30.95;50.14;100957.78;1740205;80;20894;-79
2022/06/16 07:32:18;;;;;;;3.47;2.70;;;;;;;30.93;49.67;100961.93;1726100;80;20898;-79
2022/06/16 07:34:44;;;;;;;4.78;2.37;;;;;;;30.88;49.00;100959.35;1743779;80;21032;-79
2022/06/16 07:37:11;;;;;;;8.80;2.22;;;;;;;30.81;48.52;100956.92;1740007;80;21020;-79
2022/06/16 07:39:41;;;;;;;2.87;2.33;;;;;;;30.82;47.83;100956.78;1740875;80;21591;-79
2022/06/16 07:42:09;;;;;;;3.77;2.25;;;;;;;30.81;47.19;100957.77;1747792;80;21519;-79
2022/06/16 07:44:36;;;;;;;5.90;2.15;;;;;;;30.69;46.90;100960.27;1744832;80;20909;-79
2022/06/16 07:47:04;;;;;;;3.27;2.10;;;;;;;30.80;46.65;100953.91;1744453;80;20963;-78
2022/06/16 07:49:32;;;;;;;4.53;2.33;;;;;;;30.89;46.25;100957.87;1759027;80;20898;-78
2022/06/16 07:52:04;;;;;;;4.17;2.12;;;;;;;30.57;44.30;100956.97;1745959;80;21429;-78
2022/06/16 07:54:31;;;;;;;4.75;2.20;;;;;;;30.38;44.92;100953.47;1741059;80;20866;-78
2022/06/16 07:56:58;;;;;;;2.80;2.02;;;;;;;30.35;44.83;100951.93;1763168;80;20931;-77
2022/06/16 07:59:26;;;;;;;2.58;2.02;;;;;;;30.41;44.47;100951.84;1747162;80;21412;-78
2022/06/16 08:01:53;;;;;;;2.87;2.42;;;;;;;30.22;44.23;100955.40;1751289;80;21471;-78
2022/06/16 08:04:20;;;;;;;4.20;2.50;;;;;;;30.17;43.83;100957.16;1752648;80;20958;-78
2022/06/16 08:06:46;;;;;;;5.95;3.00;;;;;;;30.12;43.50;100954.59;1753318;80;21374;-78
2022/06/16 08:09:13;;;;;;;6.85;2.55;;;;;;;30.11;43.12;100958.25;1729048;80;21450;-78
2022/06/16 08:14:27;;;;;;;3.80;2.20;;;;;;;30.27;43.19;100956.66;1732811;80;21365;-78
2022/06/16 08:16:54;;;;;;;4.87;2.33;;;;;;;30.46;42.74;100952.26;1705447;82;21410;-78
2022/06/16 08:19:21;;;;;;;3.42;2.10;;;;;;;30.63;42.71;100954.70;1719388;81;21001;-78
2022/06/16 08:21:48;;;;;;;3.92;2.35;;;;;;;30.79;42.40;100949.55;1719006;81;20918;-78
2022/06/16 08:24:16;;;;;;;3.62;2.30;;;;;;;30.76;42.16;100954.69;1700639;83;21422;-78
2022/06/16 08:26:43;;;;;;;10.45;2.52;;;;;;;30.52;41.82;100955.69;1710248;81;21409;-78
2022/06/16 08:29:14;;;;;;;3.65;2.08;;;;;;;30.33;41.69;100954.39;1711942;81;20946;-78
2022/06/16 08:31:40;;;;;;;4.62;2.35;;;;;;;30.19;41.50;100959.19;1702289;81;20930;-77
2022/06/16 08:34:07;;;;;;;5.03;1.90;;;;;;;29.95;41.12;100958.79;1705861;81;21403;-78
2022/06/16 08:36:35;;;;;;;8.13;2.10;;;;;;;29.89;41.10;100964.69;1708645;81;21496;-77
2022/06/16 08:39:06;;;;;;;3.87;1.87;;;;;;;29.81;40.76;100961.88;1707071;81;20969;-77
2022/06/16 08:41:56;;;;;;;4.75;2.30;;;;;;;29.69;40.61;100964.33;1721904;81;21383;-73
2022/06/16 08:44:33;;;;;;;4.05;2.60;;;;;;;29.59;40.48;100963.86;1709054;81;21395;-75
2022/06/16 08:47:08;;;;;;;3.52;2.27;;;;;;;29.69;40.40;100962.50;1704521;81;21755;-75
2022/06/16 08:50:06;;;;;;;3.20;1.90;;;;;;;29.68;40.33;100971.48;1700480;81;21415;-74
2022/06/16 08:52:53;;;;;;;3.22;2.15;;;;;;;29.75;40.03;100968.61;1703794;81;20921;-74
2022/06/16 08:55:44;;;;;;;6.47;2.00;;;;;;;29.81;39.93;100967.21;1706047;81;21390;-74
2022/06/16 08:58:40;;;;;;;5.67;2.17;;;;;;;29.83;39.87;100961.25;1708034;81;21509;-74
2022/06/16 09:01:14;;;;;;;3.92;2.02;;;;;;;29.80;39.72;100959.70;1716182;81;21407;-76
2022/06/16 09:03:48;;;;;;;5.25;1.60;;;;;;;29.80;39.58;100958.86;1736047;80;21459;-76
2022/06/16 09:06:38;;;;;;;4.08;2.08;;;;;;;29.72;39.35;100956.05;1729092;80;20891;-75
2022/06/16 09:09:09;;;;;;;6.30;2.10;;;;;;;29.68;39.43;100950.64;1735321;80;20950;-74
2022/06/16 09:11:47;;;;;;;7.42;2.17;;;;;;;29.76;39.26;100948.97;1732792;80;20933;-75
2022/06/16 09:17:58;;;;;;;3.22;1.67;;;;;;;29.50;39.04;100952.69;1742166;80;21351;-75
2022/06/16 09:20:38;;;;;;;5.60;1.72;;;;;;;29.29;38.96;100954.09;1739755;80;20902;-74
2022/06/16 09:23:28;;;;;;;5.03;2.00;;;;;;;29.14;38.94;100952.79;1741117;80;20874;-74
2022/06/16 09:26:31;;;;;;;3.95;2.05;;;;;;;29.07;38.83;100951.67;1746309;80;21520;-74
2022/06/16 09:29:32;;;;;;;5.87;1.90;;;;;;;28.67;38.26;100949.80;1745647;80;21004;-74
2022/06/16 09:32:08;;;;;;;3.33;1.85;;;;;;;28.27;38.18;100952.40;1733963;80;21107;-74
2022/06/16 09:35:10;;;;;;;4.92;1.80;;;;;;;27.95;38.35;100950.27;1751449;80;21017;-74
2022/06/16 09:37:54;;;;;;;2.98;1.80;;;;;;;27.74;38.25;100948.06;1734152;80;21051;-74
2022/06/16 09:40:35;;;;;;;4.97;1.77;;;;;;;27.47;38.17;100949.84;1743023;80;21115;-74
2022/06/16 09:43:25;;;;;;;1.95;1.62;;;;;;;27.26;38.13;100944.45;1741298;80;20953;-74
2022/06/16 09:45:56;;;;;;;40.35;4.67;;;;;;;27.13;38.14;100950.38;1711657;80;20882;-73
2022/06/16 09:48:48;;;;;;;8.70;2.05;;;;;;;27.02;38.21;100949.94;1743059;80;20965;-73
2022/06/16 09:51:36;;;;;;;2.27;1.45;;;;;;;26.92;38.04;100946.30;1747279;80;21056;-73
2022/06/16 09:54:17;;;;;;;2.77;1.70;;;;;;;26.75;38.02;100942.80;1724359;80;20913;-73
2022/06/16 09:56:54;;;;;;;32.55;19.50;;;;;;;26.56;38.07;100944.70;1724669;80;20867;-73
2022/06/16 09:59:26;;;;;;;6.35;4.37;;;;;;;26.43;38.12;100947.49;1740974;80;20937;-73
2022/06/16 10:02:12;;;;;;;5.83;2.70;;;;;;;26.36;38.08;100944.47;1734504;80;20933;-73
2022/06/16 10:04:38;;;;;;;3.65;2.37;;;;;;;26.25;38.12;100944.89;1739206;80;21221;-74
2022/06/16 10:07:22;;;;;;;4.10;2.10;;;;;;;26.20;38.12;100947.05;1739777;80;20909;-74
2022/06/16 10:10:11;;;;;;;10.35;1.90;;;;;;;26.10;38.09;100944.25;1746031;80;20926;-74
2022/06/16 10:13:03;;;;;;;6.85;1.95;;;;;;;26.04;38.18;100942.91;1755113;80;20894;-74
2022/06/16 10:15:49;;;;;;;5.45;1.90;;;;;;;26.02;38.21;100938.67;1742398;80;20854;-74
2022/06/16 10:18:17;;;;;;;3.75;1.80;;;;;;;26.03;38.28;100935.91;1739699;80;20938;-74
2022/06/16 10:20:45;;;;;;;5.42;3.90;;;;;;;26.06;38.36;100938.81;1738609;80;20874;-74
2022/06/16 10:23:22;;;;;;;3.92;2.00;;;;;;;26.06;38.35;100943.63;1744548;80;20894;-74
2022/06/16 10:26:07;;;;;;;7.90;1.87;;;;;;;26.08;38.27;100947.97;1734918;80;20909;-74
2022/06/16 10:28:50;;;;;;;3.92;1.50;;;;;;;26.10;38.28;100950.88;1735433;80;20894;-74
2022/06/16 10:31:22;;;;;;;4.25;1.65;;;;;;;26.09;38.13;100950.51;1729430;80;20886;-74
2022/06/16 10:33:57;;;;;;;2.77;1.90;;;;;;;26.13;38.28;100944.02;1728316;80;20922;-74
2022/06/16 10:36:26;;;;;;;1.98;1.70;;;;;;;26.21;38.29;100947.41;1710218;82;20965;-74
2022/06/16 10:39:25;;;;;;;8.13;6.22;;;;;;;26.25;38.15;100952.84;1738575;80;20902;-74
2022/06/16 10:42:15;;;;;;;5.28;2.10;;;;;;;26.28;38.29;100953.45;1728565;81;20918;-74
2022/06/16 10:44:49;;;;;;;3.40;2.10;;;;;;;26.47;38.35;100957.38;1733039;80;20902;-74
2022/06/16 10:47:23;;;;;;;3.33;1.80;;;;;;;26.66;38.42;100953.16;1731038;80;20989;-74
2022/06/16 10:49:51;;;;;;;3.75;1.60;;;;;;;26.84;38.45;100956.67;1735961;80;21502;-74
2022/06/16 10:52:39;;;;;;;2.15;1.85;;;;;;;26.98;38.31;100961.77;1732347;80;21107;-74
2022/06/16 10:55:19;;;;;;;8.75;1.67;;;;;;;27.01;38.23;100961.52;1735082;80;21856;-74
2022/06/16 10:58:03;;;;;;;3.40;1.85;;;;;;;27.02;38.19;100959.23;1738342;80;21061;-74
2022/06/16 11:00:35;;;;;;;2.98;2.10;;;;;;;26.99;38.20;100965.63;1734956;81;21061;-74
2022/06/16 11:03:12;;;;;;;3.85;1.70;;;;;;;27.03;38.22;100956.42;1738402;80;20938;-74
2022/06/16 11:05:49;;;;;;;2.75;1.87;;;;;;;27.00;37.79;100951.87;1742767;80;20966;-74
2022/06/16 11:08:21;;;;;;;4.58;1.92;;;;;;;26.85;38.02;100952.56;1741118;80;20970;-74
2022/06/16 11:10:55;;;;;;;4.50;2.05;;;;;;;26.89;38.11;100950.03;1738421;80;20935;-74
2022/06/16 11:13:30;;;;;;;8.98;2.05;;;;;;;26.95;38.06;100956.67;1736646;81;20931;-74
2022/06/16 11:15:56;;;;;;;3.47;1.90;;;;;;;26.99;37.86;100951.03;1734141;81;20971;-75
2022/06/16 11:18:25;;;;;;;;;;;;;;;27.04;38.01;100959.92;1739086;81;20923;-74
2022/06/16 11:20:56;;;;;;;5.28;1.95;;;;;;;27.01;37.88;100960.20;1714394;82;20151;-74
2022/06/16 11:23:33;;;;;;;4.03;2.55;;;;;;;26.96;38.11;100962.37;1738883;81;20943;-74
2022/06/16 11:26:20;;;;;;;2.55;1.75;;;;;;;26.98;38.16;100961.28;1723371;81;20959;-74
2022/06/16 11:28:54;;;;;;;4.10;1.87;;;;;;;26.94;38.07;100965.11;1731415;81;20967;-74
2022/06/16 11:31:26;;;;;;;6.08;2.22;;;;;;;26.82;38.01;100963.42;1728850;81;21045;-74
2022/06/16 11:34:21;;;;;;;3.50;1.77;;;;;;;26.69;38.12;100953.41;1730559;81;21001;-74
2022/06/16 11:37:19;;;;;;;4.50;2.20;;;;;;;26.64;38.01;100959.06;1725415;81;21050;-74
2022/06/16 11:40:19;;;;;;;4.60;1.90;;;;;;;26.60;38.20;100955.44;1734332;81;21539;-74
2022/06/16 11:43:09;;;;;;;3.52;2.40;;;;;;;26.61;38.11;100949.17;1720810;82;21110;-74
2022/06/16 11:45:53;;;;;;;2.95;1.60;;;;;;;26.73;38.06;100947.38;1719772;81;21562;-73
2022/06/16 11:48:28;;;;;;;5.80;1.98;;;;;;;26.79;38.07;100950.88;1694417;82;21054;-74
2022/06/16 11:51:06;;;;;;;3.02;1.67;;;;;;;26.82;38.01;100954.13;1728239;81;21078;-74
2022/06/16 11:53:41;;;;;;;3.10;1.60;;;;;;;26.76;37.88;100946.66;1733204;81;21562;-74
2022/06/16 11:56:27;;;;;;;2.52;2.12;;;;;;;26.62;37.79;100955.69;1725381;81;21094;-74
2022/06/16 11:59:13;;;;;;;;;;;;;;;26.57;37.94;100956.53;1729415;82;21090;-74
2022/06/16 12:01:49;;;;;;;5.30;1.82;;;;;;;26.55;37.75;100962.91;1732480;81;20505;-74
2022/06/16 12:04:41;;;;;;;2.05;1.50;;;;;;;26.54;37.99;100947.95;1736327;82;21094;-74
2022/06/16 12:07:28;;;;;;;3.85;1.72;;;;;;;26.62;37.92;100954.84;1727774;82;20911;-74
2022/06/16 12:10:33;;;;;;;4.75;1.80;;;;;;;26.71;38.06;100945.69;1721626;82;20931;-74
2022/06/16 12:13:27;;;;;;;2.08;1.20;;;;;;;26.85;37.78;100938.45;1739988;82;20923;-74
2022/06/16 12:16:06;;;;;;;3.45;1.77;;;;;;;26.90;38.00;100939.78;1719358;82;20953;-74
2022/06/16 12:19:17;;;;;;;2.62;1.70;;;;;;;27.02;37.95;100945.48;1724947;81;20987;-73
2022/06/16 12:21:51;;;;;;;1.98;1.30;;;;;;;27.08;37.93;100947.25;1728179;82;21530;-74